Time;durP1;ratioP1;P1;durP2;ratioP2;P2;SDS_P1;SDS_P2;PMS_P1;PMS_P2;Temp;Humidity;BMP_temperature;BMP_pressure;BME280_temperature;BME280_humidity;BME280_pressure;Samples;Min_cycle;Max_cycle;Signal;HPM_P1;HPM_P2
2021/12/13 00:01:42;;;;;;;12.83;4.93;;;;;;;22.28;42.15;102499.44;5034685;28;20365;-69
2021/12/13 00:04:19;;;;;;;11.93;5.13;;;;;;;22.32;41.86;102501.06;5034556;28;20493;-69
2021/12/13 00:06:49;;;;;;;8.27;4.77;;;;;;;21.43;43.41;102500.28;5050613;28;20024;-69
2021/12/13 00:09:19;;;;;;;13.93;4.47;;;;;;;21.08;44.82;102502.13;5053106;28;20052;-69
2021/12/13 00:11:47;;;;;;;8.80;3.70;;;;;;;20.77;45.16;102510.97;5053534;28;20028;-70
2021/12/13 00:14:29;;;;;;;8.60;3.40;;;;;;;20.60;45.33;102505.19;5047105;28;20028;-69
2021/12/13 00:17:04;;;;;;;8.03;3.50;;;;;;;20.76;45.97;102503.91;5037285;28;20052;-69
2021/12/13 00:19:39;;;;;;;14.00;2.90;;;;;;;20.63;45.08;102503.28;5052620;28;20032;-69
2021/12/13 00:22:15;;;;;;;10.03;3.03;;;;;;;21.29;43.81;102497.97;5049454;28;20508;-70
2021/12/13 00:24:45;;;;;;;7.00;3.30;;;;;;;20.68;44.96;102508.53;5036758;28;20033;-69
2021/12/13 00:27:18;;;;;;;5.47;2.77;;;;;;;21.98;42.15;102512.81;5030224;28;20044;-69
2021/12/13 00:29:52;;;;;;;6.10;2.80;;;;;;;21.68;43.02;102504.88;5042145;28;20028;-69
2021/12/13 00:32:33;;;;;;;6.13;2.40;;;;;;;21.99;41.53;102504.78;5049264;28;20021;-69
2021/12/13 00:35:04;;;;;;;5.27;1.90;;;;;;;20.72;44.23;102496.03;5037774;28;20490;-69
2021/12/13 00:37:44;;;;;;;8.20;2.07;;;;;;;21.87;42.03;102510.50;5031682;28;20041;-69
2021/12/13 00:40:33;;;;;;;7.80;1.90;;;;;;;21.44;42.17;102501.13;5029677;28;20103;-69
2021/12/13 00:43:21;;;;;;;12.60;2.07;;;;;;;20.78;44.21;102504.72;5031348;28;20092;-69
2021/12/13 00:45:55;;;;;;;6.27;2.07;;;;;;;20.77;44.60;102510.97;5049069;28;20033;-69
2021/12/13 00:48:23;;;;;;;4.00;1.70;;;;;;;21.00;43.33;102501.47;5042004;28;20106;-69
2021/12/13 00:50:54;;;;;;;3.67;1.40;;;;;;;22.12;41.10;102513.25;5029858;28;20481;-70
2021/12/13 00:53:21;;;;;;;4.40;1.80;;;;;;;21.58;41.43;102511.38;5028950;28;20068;-70
2021/12/13 00:55:48;;;;;;;3.80;1.73;;;;;;;21.78;40.84;102505.47;5030054;28;20380;-69
2021/12/13 00:58:21;;;;;;;3.87;1.53;;;;;;;22.30;40.99;102505.59;5029607;28;20029;-70
2021/12/13 01:00:50;;;;;;;7.07;1.97;;;;;;;21.85;40.41;102505.22;5028421;28;20029;-69
2021/12/13 01:03:18;;;;;;;4.33;1.57;;;;;;;20.86;43.19;102520.47;5047977;28;20035;-69
2021/12/13 01:06:34;;;;;;;5.07;1.40;;;;;;;22.15;40.72;102521.16;5050911;28;20111;-69
2021/12/13 01:09:41;;;;;;;6.00;1.43;;;;;;;21.65;42.33;102524.47;5032013;28;20025;-69
2021/12/13 01:12:12;;;;;;;4.73;1.90;;;;;;;21.54;41.10;102528.34;5035276;28;20079;-69
2021/12/13 01:14:54;;;;;;;6.43;1.90;;;;;;;22.57;39.96;102521.59;5050473;28;20021;-69
2021/12/13 01:17:57;;;;;;;3.88;2.88;;;;;;;21.36;41.38;102519.97;5044087;28;20074;-70
2021/12/13 01:20:54;;;;;;;4.75;1.88;;;;;;;22.18;39.74;102529.03;5029664;28;20471;-69
2021/12/13 01:23:37;;;;;;;1.90;1.50;;;;;;;21.38;42.07;102523.47;5013195;28;20052;-69
2021/12/13 01:26:14;;;;;;;4.73;1.80;;;;;;;21.62;41.43;102529.00;5012504;28;20493;-68
2021/12/13 01:28:44;;;;;;;4.93;2.00;;;;;;;21.49;41.50;102529.34;5028230;28;20059;-69
2021/12/13 01:31:16;;;;;;;5.73;2.10;;;;;;;22.06;40.57;102532.06;5049558;28;20029;-69
2021/12/13 01:33:45;;;;;;;5.35;2.00;;;;;;;22.01;40.30;102534.91;5026588;28;20029;-69
2021/12/13 01:36:16;;;;;;;8.60;2.13;;;;;;;22.38;39.35;102532.88;5031581;28;20048;-69
2021/12/13 01:38:56;;;;;;;5.43;2.07;;;;;;;22.72;39.43;102541.53;5019914;28;20033;-69
2021/12/13 01:41:35;;;;;;;5.33;2.50;;;;;;;22.46;40.11;102540.59;5046610;28;20108;-69
2021/12/13 01:44:23;;;;;;;6.07;2.90;;;;;;;21.75;41.09;102535.72;5023953;28;20096;-69
2021/12/13 01:46:59;;;;;;;3.97;2.23;;;;;;;21.31;41.92;102532.53;5032320;28;20170;-70
2021/12/13 01:49:34;;;;;;;7.17;2.77;;;;;;;20.82;42.53;102540.91;5012995;28;20420;-70
2021/12/13 01:52:01;;;;;;;4.77;3.00;;;;;;;22.17;39.47;102529.97;5012489;28;20031;-71
2021/12/13 01:54:27;;;;;;;6.80;3.43;;;;;;;21.45;41.60;102533.00;5017565;28;20029;-71
2021/12/13 01:56:58;;;;;;;7.97;3.97;;;;;;;21.35;41.12;102542.19;5011471;28;20032;-71
2021/12/13 02:00:17;;;;;;;9.77;4.47;;;;;;;19.99;44.50;102542.94;5013014;28;20030;-69
2021/12/13 02:02:46;;;;;;;10.00;4.63;;;;;;;22.28;40.08;102542.91;5030836;28;20042;-68
2021/12/13 02:05:23;;;;;;;8.77;4.77;;;;;;;21.65;41.49;102536.88;5014661;28;20551;-68
2021/12/13 02:07:57;;;;;;;10.47;4.43;;;;;;;21.64;41.38;102540.50;5017446;28;20087;-69
2021/12/13 02:10:32;;;;;;;11.43;6.27;;;;;;;22.29;40.01;102538.47;5011685;28;20037;-69
2021/12/13 02:13:03;;;;;;;12.07;7.13;;;;;;;20.58;43.62;102544.16;5020308;28;20428;-70
2021/12/13 02:18:21;;;;;;;12.77;6.03;;;;;;;22.19;40.46;102543.22;5038054;28;20044;-70
2021/12/13 02:20:57;;;;;;;10.27;5.43;;;;;;;22.01;40.59;102537.56;5014283;28;20025;-69
2021/12/13 02:23:24;;;;;;;12.77;6.13;;;;;;;21.96;40.65;102543.94;5038160;28;20355;-69
2021/12/13 02:25:51;;;;;;;12.87;7.53;;;;;;;21.49;41.63;102542.63;5049792;28;20082;-69
2021/12/13 02:28:21;;;;;;;13.13;6.03;;;;;;;21.24;42.49;102541.59;5052106;28;20029;-69
2021/12/13 02:31:04;;;;;;;15.47;6.60;;;;;;;21.46;40.85;102542.72;5034664;28;20016;-69
2021/12/13 02:33:32;;;;;;;;;;;;;;;22.02;40.56;102541.09;5044296;28;20029;-69
2021/12/13 02:36:06;;;;;;;13.83;6.23;;;;;;;20.95;41.58;102556.53;5032107;28;20287;-69
2021/12/13 02:38:32;;;;;;;14.50;8.13;;;;;;;21.57;41.11;102544.22;5031537;28;20552;-70
2021/12/13 02:40:59;;;;;;;10.83;6.60;;;;;;;20.69;43.21;102550.13;5034529;28;20031;-69
2021/12/13 02:43:29;;;;;;;11.63;7.23;;;;;;;21.46;42.14;102555.13;5067410;28;20031;-69
2021/12/13 02:45:57;;;;;;;11.97;6.70;;;;;;;20.50;43.35;102555.88;5051619;28;20052;-69
2021/12/13 02:48:30;;;;;;;20.50;8.13;;;;;;;20.16;43.68;102555.81;5034354;28;20024;-69
2021/12/13 02:51:11;;;;;;;11.63;7.27;;;;;;;21.15;42.19;102551.56;5051243;28;20037;-69
2021/12/13 02:53:41;;;;;;;14.67;6.80;;;;;;;21.24;42.07;102541.59;5031096;28;20031;-69
2021/12/13 02:56:07;;;;;;;13.93;6.97;;;;;;;22.08;39.83;102546.22;5031475;28;20028;-69
2021/12/13 02:58:35;;;;;;;14.53;7.57;;;;;;;22.08;40.14;102542.69;5037089;28;20122;-70
2021/12/13 03:01:33;;;;;;;9.73;6.97;;;;;;;22.43;39.68;102541.56;5048260;28;20068;-69
2021/12/13 03:04:04;;;;;;;12.80;6.80;;;;;;;21.88;40.08;102538.00;5021136;28;20484;-69
2021/12/13 03:06:35;;;;;;;11.77;6.73;;;;;;;21.48;41.29;102540.88;5031104;28;20075;-70
2021/12/13 03:09:15;;;;;;;13.33;7.60;;;;;;;23.20;37.43;102538.97;5041405;28;20507;-69
2021/12/13 03:11:42;;;;;;;15.47;8.33;;;;;;;21.98;40.07;102539.44;5065511;28;20564;-69
2021/12/13 03:14:25;;;;;;;9.87;6.60;;;;;;;21.60;40.85;102538.84;5059804;28;20029;-70
2021/12/13 03:17:05;;;;;;;13.00;7.45;;;;;;;21.72;40.39;102537.56;5042724;28;20401;-69
2021/12/13 03:19:39;;;;;;;11.77;7.03;;;;;;;21.19;42.23;102534.59;5049771;28;20060;-69
2021/12/13 03:22:56;;;;;;;15.43;6.40;;;;;;;21.30;41.71;102536.97;5032907;28;20056;-69
2021/12/13 03:25:58;;;;;;;11.10;6.73;;;;;;;22.40;39.37;102531.03;5006567;28;20101;-69
2021/12/13 03:28:40;;;;;;;11.33;6.53;;;;;;;22.08;40.27;102535.59;5042157;28;20503;-69
2021/12/13 03:31:22;;;;;;;10.43;6.45;;;;;;;22.01;40.06;102539.38;5042375;28;20071;-69
2021/12/13 03:33:50;;;;;;;12.60;6.40;;;;;;;22.16;39.86;102544.19;5034520;28;20369;-70
2021/12/13 03:36:22;;;;;;;10.10;5.90;;;;;;;22.24;39.87;102540.41;5034367;28;20075;-69
2021/12/13 03:38:54;;;;;;;9.73;6.37;;;;;;;22.01;39.91;102542.03;5036975;28;20021;-69
2021/12/13 03:41:21;;;;;;;;;;;;;;;21.89;40.34;102545.94;5035051;28;20025;-69
2021/12/13 03:44:00;;;;;;;9.77;5.80;;;;;;;22.00;39.80;102540.28;5052617;28;19919;-69
2021/12/13 03:46:29;;;;;;;10.00;6.27;;;;;;;21.14;41.55;102543.63;5071858;28;20025;-69
2021/12/13 03:48:56;;;;;;;11.47;6.57;;;;;;;20.10;43.70;102535.59;5051108;28;20060;-70
2021/12/13 03:51:25;;;;;;;9.70;6.60;;;;;;;22.16;40.22;102533.53;5053157;28;20425;-70
2021/12/13 03:53:53;;;;;;;10.63;5.90;;;;;;;22.60;38.62;102530.38;5053351;28;20024;-69
2021/12/13 03:56:23;;;;;;;9.73;6.03;;;;;;;21.25;41.09;102528.25;5071305;28;20040;-71
2021/12/13 03:58:55;;;;;;;11.27;6.33;;;;;;;20.58;42.65;102525.56;5050085;28;20016;-69
2021/12/13 04:01:28;;;;;;;13.93;5.82;;;;;;;21.12;42.18;102538.34;5053420;28;20131;-69
2021/12/13 04:03:58;;;;;;;8.77;5.30;;;;;;;20.12;43.19;102532.88;5034024;28;20416;-69
2021/12/13 04:06:24;;;;;;;12.43;5.63;;;;;;;21.08;41.61;102542.00;5034280;28;20493;-69
2021/12/13 04:08:54;;;;;;;10.37;6.00;;;;;;;21.24;41.18;102536.25;5038553;28;20036;-69
2021/12/13 04:11:23;;;;;;;11.07;5.17;;;;;;;22.48;39.06;102534.31;5033202;28;20033;-70
2021/12/13 04:14:01;;;;;;;11.57;5.80;;;;;;;21.75;40.28;102522.41;5050187;28;20409;-69
2021/12/13 04:17:19;;;;;;;9.80;5.50;;;;;;;21.66;39.92;102518.22;5070356;28;20037;-70
2021/12/13 04:19:59;;;;;;;10.40;5.83;;;;;;;22.83;38.28;102528.69;5033858;28;20055;-69
2021/12/13 04:22:31;;;;;;;12.63;5.57;;;;;;;22.16;38.96;102527.31;5055419;28;20037;-69
2021/12/13 04:25:08;;;;;;;9.82;5.80;;;;;;;22.00;39.92;102526.97;5051233;28;20170;-69
2021/12/13 04:27:34;;;;;;;8.83;4.87;;;;;;;21.41;40.05;102523.38;5051827;28;20048;-69
2021/12/13 04:30:08;;;;;;;7.63;4.80;;;;;;;21.80;39.50;102525.81;5033604;28;20540;-69
2021/12/13 04:32:41;;;;;;;10.17;5.53;;;;;;;21.33;40.82;102536.00;5041251;28;20155;-69
2021/12/13 04:35:11;;;;;;;7.07;5.00;;;;;;;21.72;39.93;102530.50;5033090;28;20033;-69
2021/12/13 04:37:42;;;;;;;10.10;5.57;;;;;;;20.87;41.76;102531.94;5049215;28;20025;-69
2021/12/13 04:40:18;;;;;;;7.60;4.87;;;;;;;21.44;40.21;102531.25;5057973;28;20078;-69
2021/12/13 04:42:47;;;;;;;7.57;5.13;;;;;;;21.10;41.37;102536.66;5034353;28;20028;-69
2021/12/13 04:45:17;;;;;;;9.10;5.53;;;;;;;21.30;40.71;102530.78;5032758;28;20035;-69
2021/12/13 04:48:13;;;;;;;7.60;4.90;;;;;;;21.66;39.96;102538.63;5037315;28;20028;-69
2021/12/13 04:51:24;;;;;;;10.30;4.63;;;;;;;21.25;41.07;102540.69;5052596;28;20032;-69
2021/12/13 04:53:50;;;;;;;13.60;6.63;;;;;;;21.84;39.66;102538.09;5029760;28;20059;-69
2021/12/13 04:56:22;;;;;;;6.90;4.80;;;;;;;21.22;41.03;102538.97;5032895;28;20025;-69
2021/12/13 04:58:50;;;;;;;8.38;4.72;;;;;;;21.90;39.15;102529.03;5043517;28;20029;-69
2021/12/13 05:01:18;;;;;;;9.73;5.27;;;;;;;21.83;39.80;102524.81;5070333;28;20032;-69
2021/12/13 05:03:51;;;;;;;6.93;4.13;;;;;;;21.60;39.46;102529.06;5043541;28;20036;-69
2021/12/13 05:06:34;;;;;;;6.53;4.67;;;;;;;21.19;40.54;102544.38;5069370;28;20488;-69
2021/12/13 05:09:03;;;;;;;14.55;5.03;;;;;;;21.62;40.27;102543.16;5040260;28;20040;-69
2021/12/13 05:11:31;;;;;;;8.17;4.43;;;;;;;21.41;40.04;102544.63;5038704;28;20468;-70
2021/12/13 05:13:58;;;;;;;8.23;5.03;;;;;;;20.21;41.53;102547.72;5031779;28;20021;-69
2021/12/13 05:16:50;;;;;;;7.23;4.33;;;;;;;20.45;41.02;102547.13;5041307;28;20055;-70
2021/12/13 05:19:28;;;;;;;8.87;4.77;;;;;;;21.02;39.63;102552.81;5051619;28;20044;-69
2021/12/13 05:21:56;;;;;;;10.17;4.77;;;;;;;20.27;41.95;102552.91;5043735;28;20049;-69
2021/12/13 05:24:26;;;;;;;11.17;4.57;;;;;;;21.98;39.12;102536.78;5051041;28;20597;-69
2021/12/13 05:26:53;;;;;;;9.47;5.17;;;;;;;21.09;41.04;102551.75;5032511;28;20037;-69
2021/12/13 05:29:40;;;;;;;10.17;4.40;;;;;;;21.85;39.48;102545.13;5050018;28;20124;-69
2021/12/13 05:32:13;;;;;;;8.93;5.13;;;;;;;21.62;39.35;102542.31;5032089;28;20040;-69
2021/12/13 05:34:44;;;;;;;7.37;4.57;;;;;;;21.85;38.59;102541.63;5032121;28;20033;-69
2021/12/13 05:37:10;;;;;;;8.67;4.63;;;;;;;21.98;37.74;102539.44;5050211;28;20041;-69
2021/12/13 05:39:37;;;;;;;9.83;4.43;;;;;;;22.12;37.78;102550.53;5045381;28;20097;-69
2021/12/13 05:42:11;;;;;;;9.80;5.23;;;;;;;22.77;36.94;102551.09;5054763;28;20100;-69
2021/12/13 05:44:44;;;;;;;6.37;4.10;;;;;;;22.43;37.74;102535.38;5032691;28;20059;-69
2021/12/13 05:47:22;;;;;;;10.02;5.05;;;;;;;22.09;38.21;102547.97;5049073;28;20476;-69
2021/12/13 05:49:49;;;;;;;7.90;4.57;;;;;;;21.14;40.16;102557.81;5032999;28;20202;-69
2021/12/13 05:52:19;;;;;;;8.00;4.07;;;;;;;22.42;37.54;102550.50;5050004;28;20037;-69
2021/12/13 05:54:57;;;;;;;8.33;4.77;;;;;;;21.28;38.77;102538.81;5032306;28;20021;-69
2021/12/13 05:57:30;;;;;;;9.37;4.87;;;;;;;21.54;39.05;102544.31;5031561;28;20448;-70
2021/12/13 06:00:15;;;;;;;6.57;4.73;;;;;;;21.06;39.99;102554.50;5057451;28;20503;-69
2021/12/13 06:03:00;;;;;;;11.83;5.73;;;;;;;21.59;39.11;102553.91;5049234;28;20384;-69
2021/12/13 06:05:29;;;;;;;11.37;5.17;;;;;;;21.51;39.25;102546.13;5046098;28;20047;-69
2021/12/13 06:07:59;;;;;;;14.07;5.50;;;;;;;20.76;40.37;102550.81;5051301;28;20029;-69
2021/12/13 06:10:38;;;;;;;15.30;5.30;;;;;;;21.25;39.69;102548.66;5034858;28;20521;-69
2021/12/13 06:13:07;;;;;;;10.20;5.00;;;;;;;21.79;38.19;102553.31;5031152;28;20021;-69
2021/12/13 06:15:36;;;;;;;11.93;5.57;;;;;;;21.77;38.47;102547.16;5066623;28;20035;-69
2021/12/13 06:18:04;;;;;;;8.30;5.50;;;;;;;21.05;40.00;102547.41;5049865;28;20044;-70
2021/12/13 06:20:44;;;;;;;6.93;4.57;;;;;;;21.69;39.12;102549.19;5055161;28;20040;-69
2021/12/13 06:23:09;;;;;;;7.40;5.00;;;;;;;22.06;38.05;102553.38;5038007;28;20037;-69
2021/12/13 06:25:36;;;;;;;10.20;5.37;;;;;;;20.14;41.60;102563.81;5056970;28;20094;-69
2021/12/13 06:28:07;;;;;;;10.77;5.57;;;;;;;21.38;39.29;102554.50;5067848;28;20087;-69
2021/12/13 06:30:38;;;;;;;9.20;5.17;;;;;;;20.83;40.65;102555.97;5049637;28;20439;-69
2021/12/13 06:33:12;;;;;;;11.43;5.60;;;;;;;20.83;40.33;102553.31;5064545;28;20044;-69
2021/12/13 06:35:45;;;;;;;10.17;5.70;;;;;;;20.81;40.40;102563.13;5061367;28;20056;-69
2021/12/13 06:38:20;;;;;;;15.10;6.37;;;;;;;21.29;39.13;102558.28;5032467;28;20131;-70
2021/12/13 06:40:51;;;;;;;13.10;6.43;;;;;;;21.05;39.78;102558.06;5037229;28;20471;-69
2021/12/13 06:43:34;;;;;;;9.57;5.70;;;;;;;21.16;40.24;102563.94;5031838;28;20025;-69
2021/12/13 06:46:04;;;;;;;12.85;7.35;;;;;;;21.67;38.35;102559.00;5047013;28;20116;-69
2021/12/13 06:48:40;;;;;;;14.93;6.40;;;;;;;20.57;41.48;102563.69;5031917;28;20392;-69
2021/12/13 06:51:09;;;;;;;11.73;7.10;;;;;;;21.19;39.97;102571.81;5046664;28;20592;-69
2021/12/13 06:53:35;;;;;;;12.97;6.87;;;;;;;21.94;38.52;102564.41;5037426;28;20025;-70
2021/12/13 06:56:24;;;;;;;14.50;7.57;;;;;;;20.96;40.15;102568.91;5031427;28;20492;-69
2021/12/13 06:58:53;;;;;;;15.33;7.33;;;;;;;21.15;39.83;102575.50;5040529;28;20025;-69
2021/12/13 07:01:18;;;;;;;15.90;7.90;;;;;;;20.66;40.00;102587.34;5046329;28;20388;-69
2021/12/13 07:04:12;;;;;;;15.60;8.03;;;;;;;21.00;40.27;102583.88;5053072;28;20029;-69
2021/12/13 07:06:39;;;;;;;14.47;8.20;;;;;;;20.47;41.36;102587.81;5040971;28;20397;-69
2021/12/13 07:09:10;;;;;;;17.47;8.63;;;;;;;20.61;41.49;102589.28;5066297;28;20032;-69
2021/12/13 07:11:47;;;;;;;17.27;8.73;;;;;;;20.15;41.89;102591.22;5039548;28;20045;-69
2021/12/13 07:14:15;;;;;;;18.80;8.60;;;;;;;20.68;40.61;102589.09;5052818;28;20035;-69
2021/12/13 07:16:51;;;;;;;19.00;8.77;;;;;;;20.89;40.85;102594.78;5045496;28;20032;-69
2021/12/13 07:19:26;;;;;;;15.00;8.17;;;;;;;20.78;41.02;102591.53;5051585;28;20131;-69
2021/12/13 07:21:55;;;;;;;15.83;8.83;;;;;;;20.27;41.83;102598.03;5052884;28;20136;-69
2021/12/13 07:24:43;;;;;;;19.37;9.10;;;;;;;21.39;39.58;102591.72;5036698;28;20054;-69
2021/12/13 07:27:18;;;;;;;17.23;8.90;;;;;;;20.92;40.35;102604.47;5045384;28;20055;-69
2021/12/13 07:29:52;;;;;;;19.17;8.53;;;;;;;21.74;39.13;102600.47;5040076;28;20032;-69
2021/12/13 07:32:33;;;;;;;21.00;9.60;;;;;;;21.76;38.35;102593.34;5039583;28;20079;-69
2021/12/13 07:35:09;;;;;;;17.57;9.57;;;;;;;21.32;39.36;102606.06;5050113;28;20447;-69
2021/12/13 07:37:38;;;;;;;18.67;8.93;;;;;;;21.21;40.17;102610.81;5054644;28;20035;-69
2021/12/13 07:40:18;;;;;;;22.40;9.33;;;;;;;21.15;40.37;102611.84;5053434;28;20036;-69
2021/12/13 07:42:57;;;;;;;21.27;9.37;;;;;;;21.04;40.00;102609.47;5054189;28;20020;-69
2021/12/13 07:45:47;;;;;;;23.73;10.03;;;;;;;21.66;39.50;102613.13;5049994;28;20142;-69
2021/12/13 07:48:34;;;;;;;19.33;9.37;;;;;;;21.05;40.38;102620.97;5054391;28;20536;-69
2021/12/13 07:51:04;;;;;;;22.17;10.37;;;;;;;19.94;43.07;102624.41;5036213;28;20082;-69
2021/12/13 07:53:48;;;;;;;20.13;10.00;;;;;;;20.08;43.41;102617.00;5034804;28;20029;-69
2021/12/13 07:56:40;;;;;;;24.03;10.13;;;;;;;20.46;41.58;102623.25;5054921;28;20392;-69
2021/12/13 07:59:29;;;;;;;24.20;10.27;;;;;;;20.67;41.32;102616.53;5052594;28;20036;-69
2021/12/13 08:02:02;;;;;;;20.43;10.07;;;;;;;20.42;41.87;102626.03;5053482;28;20029;-69
2021/12/13 08:04:42;;;;;;;19.63;10.27;;;;;;;19.87;42.98;102631.63;5047557;28;20029;-69
2021/12/13 08:07:30;;;;;;;26.33;10.10;;;;;;;19.61;43.15;102632.97;5047312;28;20028;-69
2021/12/13 08:09:57;;;;;;;17.53;9.40;;;;;;;20.76;40.87;102630.53;5068932;28;20050;-69
2021/12/13 08:12:35;;;;;;;22.90;10.60;;;;;;;19.91;43.38;102619.19;5059100;28;20451;-69
2021/12/13 08:15:24;;;;;;;22.30;10.03;;;;;;;20.23;42.80;102620.25;5036741;28;20043;-69
2021/12/13 08:17:55;;;;;;;20.27;9.43;;;;;;;20.06;42.95;102634.78;5048791;28;20554;-70
2021/12/13 08:20:34;;;;;;;21.80;11.17;;;;;;;20.33;42.34;102617.34;5048759;28;20078;-69
2021/12/13 08:23:03;;;;;;;26.57;11.63;;;;;;;19.87;44.32;102626.31;5040366;28;20778;-70
2021/12/13 08:25:38;;;;;;;22.60;10.73;;;;;;;18.81;46.51;102623.78;5037260;28;20105;-69
2021/12/13 08:28:13;;;;;;;25.17;10.97;;;;;;;19.46;44.40;102623.53;5050372;28;20039;-69
2021/12/13 08:30:52;;;;;;;21.70;11.43;;;;;;;19.73;43.86;102618.59;5040161;28;20024;-69
2021/12/13 08:33:25;;;;;;;22.50;11.03;;;;;;;19.91;43.74;102614.72;5043325;28;20068;-69
2021/12/13 08:36:01;;;;;;;29.40;11.40;;;;;;;19.47;44.65;102627.94;5039928;28;20029;-69
2021/12/13 08:38:52;;;;;;;23.63;10.77;;;;;;;19.29;44.36;102620.34;5032753;28;20033;-70
2021/12/13 08:41:41;;;;;;;21.83;10.77;;;;;;;20.35;42.60;102619.97;5039708;28;20040;-69
2021/12/13 08:44:12;;;;;;;25.93;11.60;;;;;;;19.29;44.77;102628.31;5045326;28;20116;-69
2021/12/13 08:47:07;;;;;;;24.80;10.43;;;;;;;19.92;43.75;102620.91;5071380;28;20058;-69
2021/12/13 08:49:46;;;;;;;22.17;10.33;;;;;;;20.16;42.07;102617.72;5035912;28;20031;-69
2021/12/13 08:52:20;;;;;;;22.80;10.23;;;;;;;21.23;40.20;102627.59;5065089;28;20028;-69
2021/12/13 08:55:01;;;;;;;24.13;10.23;;;;;;;20.12;42.72;102623.13;5034506;28;20120;-71
2021/12/13 08:57:39;;;;;;;21.63;10.57;;;;;;;19.45;43.02;102637.72;5033348;28;20029;-69
2021/12/13 09:00:20;;;;;;;22.07;10.80;;;;;;;20.59;41.55;102638.91;5031746;28;20396;-69
2021/12/13 09:02:57;;;;;;;27.93;11.10;;;;;;;18.71;45.37;102652.19;5048642;28;20046;-70
2021/12/13 09:05:31;;;;;;;28.13;11.47;;;;;;;20.34;43.18;102642.13;5056720;28;20509;-70
2021/12/13 09:08:07;;;;;;;24.00;9.90;;;;;;;20.47;43.15;102653.31;5070616;28;20024;-70
2021/12/13 09:10:39;;;;;;;24.07;10.80;;;;;;;19.60;44.02;102672.78;5046750;28;20036;-70
2021/12/13 09:13:05;;;;;;;26.67;10.43;;;;;;;19.76;43.90;102679.56;5035917;28;20036;-70
2021/12/13 09:15:34;;;;;;;24.03;9.97;;;;;;;19.45;44.27;102674.84;5063017;28;20081;-70
2021/12/13 09:18:00;;;;;;;26.27;10.70;;;;;;;19.39;44.96;102680.25;5037074;28;20042;-70
2021/12/13 09:20:25;;;;;;;21.33;10.27;;;;;;;20.36;42.73;102674.84;5061293;28;20032;-70
2021/12/13 09:22:54;;;;;;;20.07;9.47;;;;;;;20.04;43.62;102679.03;5047201;28;20068;-70
2021/12/13 09:25:54;;;;;;;20.63;9.87;;;;;;;21.19;41.42;102678.19;5051472;28;20504;-70
2021/12/13 09:28:24;;;;;;;22.33;10.07;;;;;;;20.36;42.80;102690.78;5031522;28;20404;-70
2021/12/13 09:30:56;;;;;;;25.63;12.07;;;;;;;20.54;42.59;102689.47;5054690;28;20060;-70
2021/12/13 09:33:37;;;;;;;24.37;11.00;;;;;;;21.34;41.04;102692.00;4977921;28;20137;-70
2021/12/13 09:36:21;;;;;;;27.53;9.80;;;;;;;21.56;40.34;102696.81;5051006;28;20491;-70
2021/12/13 09:39:04;;;;;;;20.43;9.30;;;;;;;21.92;39.10;102699.34;5047732;28;20468;-70
2021/12/13 09:41:45;;;;;;;19.52;9.50;;;;;;;21.38;40.25;102692.78;5055887;28;20111;-70
2021/12/13 09:44:11;;;;;;;22.97;10.53;;;;;;;20.57;40.86;102704.47;5050842;28;20020;-70
2021/12/13 09:46:52;;;;;;;26.03;9.83;;;;;;;20.58;41.93;102717.72;5046475;28;20037;-70
2021/12/13 09:49:26;;;;;;;21.87;9.70;;;;;;;20.44;42.76;102712.72;5041874;28;20024;-70
2021/12/13 09:52:05;;;;;;;21.27;10.20;;;;;;;20.75;42.37;102713.84;5065443;28;20031;-70
2021/12/13 09:54:38;;;;;;;20.57;8.90;;;;;;;20.14;42.94;102723.06;5082463;28;20032;-71
2021/12/13 09:57:15;;;;;;;19.13;9.17;;;;;;;21.27;41.13;102722.34;5046362;28;20032;-70
2021/12/13 09:59:45;;;;;;;22.73;9.60;;;;;;;20.30;42.74;102720.09;5051630;28;20127;-71
2021/12/13 10:02:20;;;;;;;19.40;9.03;;;;;;;20.45;41.98;102711.78;5067714;28;20104;-71
2021/12/13 10:04:49;;;;;;;22.83;10.03;;;;;;;20.96;40.91;102712.44;5042981;28;20021;-70
2021/12/13 10:07:28;;;;;;;20.57;8.73;;;;;;;22.42;38.69;102720.13;5031096;28;20095;-71
2021/12/13 10:09:58;;;;;;;22.30;9.00;;;;;;;21.42;40.32;102721.94;5048567;28;20503;-71
2021/12/13 10:12:36;;;;;;;19.47;9.60;;;;;;;20.15;43.48;102722.19;5048907;28;20095;-71
2021/12/13 10:15:10;;;;;;;18.03;8.70;;;;;;;20.07;42.25;102716.16;5031089;28;20078;-70
2021/12/13 10:17:40;;;;;;;22.30;9.77;;;;;;;21.06;41.08;102729.03;5031102;28;20036;-71
2021/12/13 10:20:14;;;;;;;18.53;9.83;;;;;;;21.37;40.74;102718.53;5036158;28;20036;-70
2021/12/13 10:22:39;;;;;;;16.77;8.37;;;;;;;20.07;42.54;102732.06;5050427;28;20127;-71
2021/12/13 10:25:08;;;;;;;23.47;9.53;;;;;;;21.48;39.88;102720.91;5040430;28;20035;-71
2021/12/13 10:27:34;;;;;;;21.40;9.43;;;;;;;20.57;41.85;102718.63;5050434;28;20037;-71
2021/12/13 10:30:04;;;;;;;18.53;8.90;;;;;;;20.61;42.56;102717.66;5063739;28;20028;-70
2021/12/13 10:32:36;;;;;;;19.27;9.80;;;;;;;21.13;41.16;102714.69;5036785;28;20098;-71
2021/12/13 10:35:09;;;;;;;16.90;8.40;;;;;;;20.28;42.42;102719.28;5054212;28;20221;-70
2021/12/13 10:37:42;;;;;;;15.13;8.03;;;;;;;20.81;42.01;102711.91;5038909;28;20291;-71
2021/12/13 10:40:11;;;;;;;18.07;9.37;;;;;;;21.40;40.11;102707.78;5046444;28;20032;-71
2021/12/13 10:42:43;;;;;;;16.47;8.07;;;;;;;20.82;41.62;102711.00;5053520;28;20127;-71
2021/12/13 10:45:13;;;;;;;19.83;8.80;;;;;;;21.89;39.65;102710.09;5071869;28;20036;-71
2021/12/13 10:47:43;;;;;;;14.70;8.20;;;;;;;21.59;40.53;102708.22;5054818;28;20024;-71
2021/12/13 10:50:14;;;;;;;15.70;8.67;;;;;;;21.90;39.85;102711.81;5082730;28;20028;-71
2021/12/13 10:52:42;;;;;;;20.57;8.83;;;;;;;22.12;38.90;102712.06;5039067;28;20153;-71
2021/12/13 10:55:16;;;;;;;16.97;9.03;;;;;;;21.75;39.63;102715.78;5053896;28;20028;-71
2021/12/13 10:57:47;;;;;;;19.97;8.70;;;;;;;22.07;38.33;102709.56;5066958;28;20028;-71
2021/12/13 11:00:21;;;;;;;19.83;8.60;;;;;;;21.39;40.65;102700.75;5039756;28;20041;-71
2021/12/13 11:02:52;;;;;;;20.33;8.73;;;;;;;20.23;43.22;102707.88;5053981;28;20099;-71
2021/12/13 11:05:20;;;;;;;16.60;8.10;;;;;;;20.63;41.86;102709.63;5052020;28;20071;-71
2021/12/13 11:07:48;;;;;;;20.03;8.00;;;;;;;21.83;39.88;102703.13;5062250;28;20056;-71
2021/12/13 11:10:22;;;;;;;17.90;7.87;;;;;;;21.46;39.67;102710.31;5048035;28;20059;-71
2021/12/13 11:12:54;;;;;;;19.47;8.53;;;;;;;23.20;36.96;102704.31;5064204;28;20147;-71
2021/12/13 11:15:24;;;;;;;14.70;7.77;;;;;;;22.48;37.64;102703.97;5052399;28;20496;-71
2021/12/13 11:17:50;;;;;;;18.73;8.23;;;;;;;22.44;37.98;102707.63;5034363;28;20283;-71
2021/12/13 11:20:25;;;;;;;15.60;7.97;;;;;;;22.27;38.71;102705.44;5065007;28;20028;-71
2021/12/13 11:22:50;;;;;;;16.93;8.20;;;;;;;21.47;40.24;102708.50;5065308;28;20049;-71
2021/12/13 11:25:33;;;;;;;15.17;7.70;;;;;;;22.00;39.42;102702.66;5067514;28;20043;-71
2021/12/13 11:27:58;;;;;;;24.27;8.40;;;;;;;21.65;39.44;102699.19;5044916;28;20031;-71
2021/12/13 11:30:29;;;;;;;18.50;8.17;;;;;;;20.92;40.87;102701.00;5071262;28;20032;-71
2021/12/13 11:32:57;;;;;;;16.47;7.87;;;;;;;22.74;37.39;102688.91;5043554;28;20040;-71
2021/12/13 11:35:47;;;;;;;15.93;7.70;;;;;;;22.78;37.21;102696.78;5038101;28;20037;-71
2021/12/13 11:38:48;;;;;;;19.97;8.23;;;;;;;21.38;39.93;102695.44;5033905;28;20036;-72
2021/12/13 11:41:49;;;;;;;14.83;7.83;;;;;;;21.89;39.24;102694.13;5033556;28;20480;-71
2021/12/13 11:44:59;;;;;;;15.37;7.47;;;;;;;21.18;41.09;102697.72;5035087;28;20068;-71
2021/12/13 11:47:46;;;;;;;18.23;7.77;;;;;;;21.00;40.85;102693.72;4968037;28;20030;-71
2021/12/13 11:50:39;;;;;;;18.93;8.20;;;;;;;21.00;41.06;102698.19;4969242;28;20487;-71
2021/12/13 11:53:18;;;;;;;15.05;7.35;;;;;;;21.25;40.89;102686.94;5038531;28;20127;-71
2021/12/13 11:56:02;;;;;;;17.13;7.80;;;;;;;21.70;39.52;102694.63;5040385;28;20039;-71
2021/12/13 11:58:46;;;;;;;15.33;7.53;;;;;;;22.06;38.76;102686.50;5035506;28;20073;-71
2021/12/13 12:01:30;;;;;;;15.13;7.20;;;;;;;21.92;39.09;102694.03;5043830;28;20414;-72